Time;durP1;ratioP1;P1;durP2;ratioP2;P2;SDS_P1;SDS_P2;PMS_P1;PMS_P2;Temp;Humidity;BMP_temperature;BMP_pressure;BME280_temperature;BME280_humidity;BME280_pressure;Samples;Min_cycle;Max_cycle;Signal;HPM_P1;HPM_P2
2022/07/03 00:01:25;;;;;;;1.77;1.52;;;16.90;99.90;;;16.85;90.72;97415.75;4941199;28;20120;-40
2022/07/03 00:03:51;;;;;;;3.42;1.35;;;16.90;99.90;;;16.90;90.29;97417.16;4945140;28;20027;-41
2022/07/03 00:06:17;;;;;;;3.22;1.38;;;16.90;99.90;;;16.93;90.46;97414.31;4937845;28;20365;-41
2022/07/03 00:08:43;;;;;;;1.25;1.02;;;17.00;99.90;;;16.93;90.28;97410.81;4925094;28;20085;-40
2022/07/03 00:11:09;;;;;;;4.70;1.50;;;17.00;99.90;;;16.96;90.91;97419.47;4945955;28;20038;-41
2022/07/03 00:13:34;;;;;;;1.80;1.38;;;17.00;99.90;;;16.96;90.96;97418.63;4943506;28;20035;-41
2022/07/03 00:16:00;;;;;;;1.65;1.38;;;17.00;99.90;;;16.95;91.10;97422.22;4938855;28;20027;-41
2022/07/03 00:18:26;;;;;;;1.50;1.10;;;17.00;99.90;;;16.94;91.46;97420.50;4943590;28;20027;-41
2022/07/03 00:21:04;;;;;;;2.47;1.20;;;17.00;99.90;;;16.92;92.08;97414.41;4937550;28;20424;-41
2022/07/03 00:23:40;;;;;;;1.30;1.17;;;17.00;99.90;;;16.90;92.63;97419.81;4942630;28;20082;-41
2022/07/03 00:26:07;;;;;;;1.00;0.90;;;17.00;99.90;;;16.90;92.77;97424.31;4939345;28;20616;-41
2022/07/03 00:28:32;;;;;;;1.92;1.40;;;17.00;99.90;;;16.86;93.37;97420.97;4927305;28;20032;-41
2022/07/03 00:30:58;;;;;;;2.13;1.35;;;17.00;99.90;;;16.84;94.33;97422.88;4940550;28;20506;-42
2022/07/03 00:35:57;;;;;;;1.33;1.00;;;16.90;99.90;;;16.85;94.69;97421.06;4922765;28;20141;-47
2022/07/03 00:38:24;;;;;;;1.70;1.13;;;17.00;99.90;;;16.84;94.92;97422.88;4924955;29;20032;-48
2022/07/03 00:40:50;;;;;;;1.30;1.17;;;16.90;99.90;;;16.85;95.03;97421.06;4927182;29;20050;-48
2022/07/03 00:43:19;;;;;;;1.73;1.08;;;16.90;99.90;;;16.82;94.47;97413.25;4928109;29;20032;-51
2022/07/03 00:45:50;;;;;;;1.25;1.10;;;17.00;99.90;;;16.90;94.09;97421.66;4904736;29;20438;-51
2022/07/03 00:48:18;;;;;;;1.30;1.20;;;17.00;99.90;;;16.89;94.59;97414.63;4906629;29;20059;-44
2022/07/03 00:50:51;;;;;;;1.20;1.10;;;17.00;99.90;;;16.87;95.22;97417.38;4907201;29;20488;-50
2022/07/03 00:53:33;;;;;;;1.38;1.20;;;17.00;99.90;;;16.82;95.91;97419.44;4906295;29;20042;-47
2022/07/03 00:56:00;;;;;;;1.65;1.40;;;16.90;99.90;;;16.77;96.89;97416.19;4908570;29;20377;-48
2022/07/03 00:58:27;;;;;;;1.40;1.30;;;16.90;99.90;;;16.74;97.50;97422.59;4923581;29;20091;-48
2022/07/03 01:00:54;;;;;;;2.65;1.20;;;16.90;99.90;;;16.70;97.93;97417.53;4907996;29;20056;-46
2022/07/03 01:03:21;;;;;;;1.30;1.20;;;16.80;99.90;;;16.71;97.15;97429.91;4923806;29;20035;-45
2022/07/03 01:05:54;;;;;;;1.20;1.10;;;16.80;99.90;;;16.67;97.84;97423.03;4917683;29;20585;-51
2022/07/03 01:08:40;;;;;;;1.10;1.00;;;16.80;99.90;;;16.67;97.95;97426.56;4894484;29;22414;-48
2022/07/03 01:11:42;;;;;;;3.72;1.30;;;16.80;99.90;;;16.66;98.01;97426.66;4907015;29;20532;-46
2022/07/03 01:14:26;;;;;;;1.20;1.10;;;16.80;99.90;;;16.63;97.98;97421.50;4906344;29;20042;-49
2022/07/03 01:17:30;;;;;;;1.73;1.40;;;16.70;99.90;;;16.64;97.77;97420.56;4922530;29;20028;-46
2022/07/03 01:20:02;;;;;;;1.50;1.20;;;16.80;99.90;;;16.68;98.00;97414.09;4883357;29;20073;-46
2022/07/03 01:22:43;;;;;;;1.27;1.10;;;16.80;99.90;;;16.66;98.13;97421.34;4903985;29;20028;-48
2022/07/03 01:25:44;;;;;;;1.23;1.00;;;16.80;99.90;;;16.63;98.52;97418.84;4907007;29;20183;-50
2022/07/03 01:28:16;;;;;;;1.60;1.23;;;16.70;99.90;;;16.63;97.86;97417.03;4908223;29;20032;-46
2022/07/03 01:30:50;;;;;;;2.13;1.00;;;16.70;99.90;;;16.60;98.39;97415.44;4889333;29;20035;-47
2022/07/03 01:33:23;;;;;;;1.23;1.13;;;16.70;99.90;;;16.58;98.60;97420.00;4909836;29;20028;-48
2022/07/03 01:36:00;;;;;;;1.00;0.90;;;16.70;99.90;;;16.58;98.71;97417.34;4907611;29;20036;-46
2022/07/03 01:38:38;;;;;;;1.65;1.17;;;16.70;99.90;;;16.57;98.83;97412.94;4904812;29;20057;-49
2022/07/03 01:41:07;;;;;;;1.98;1.20;;;16.70;99.90;;;16.56;99.21;97410.38;4902682;29;20036;-47
2022/07/03 01:43:46;;;;;;;0.90;0.90;;;16.70;99.90;;;16.55;99.54;97414.00;4906390;29;20373;-50
2022/07/03 01:46:15;;;;;;;1.17;1.08;;;16.60;99.90;;;16.50;100.00;97411.59;4909632;29;20039;-48
2022/07/03 01:48:43;;;;;;;1.10;0.90;;;16.60;99.90;;;16.46;100.00;97410.09;4901994;29;20062;-48
2022/07/03 01:51:14;;;;;;;1.10;1.00;;;16.60;99.90;;;16.39;100.00;97406.09;4905696;29;20452;-47
2022/07/03 01:53:45;;;;;;;1.15;1.05;;;16.50;99.90;;;16.39;100.00;97414.91;4905804;29;20051;-48
2022/07/03 01:56:12;;;;;;;1.23;1.10;;;16.50;99.90;;;16.40;100.00;97415.75;4914750;29;20032;-48
2022/07/03 01:58:38;;;;;;;3.90;1.38;;;16.50;99.90;;;16.46;100.00;97411.91;4908197;29;20064;-50
2022/07/03 02:01:51;;;;;;;1.15;1.05;;;16.50;99.90;;;16.48;100.00;97416.16;4901660;29;20457;-49
2022/07/03 02:04:33;;;;;;;;;;;16.60;99.90;;;16.47;100.00;97411.78;4905563;29;20072;-48
2022/07/03 02:07:35;;;;;;;1.70;1.30;;;16.60;99.90;;;16.49;100.00;97401.94;4907203;29;19985;-45
2022/07/03 02:10:07;;;;;;;1.65;1.08;;;16.60;99.90;;;16.51;100.00;97400.03;4907899;29;20554;-46
2022/07/03 02:12:49;;;;;;;2.60;1.35;;;16.60;99.90;;;16.52;100.00;97401.72;4903265;29;20123;-50
2022/07/03 02:15:21;;;;;;;2.05;1.20;;;16.60;99.90;;;16.53;100.00;97402.59;4903812;29;20035;-50
2022/07/03 02:17:48;;;;;;;1.30;1.10;;;16.70;99.90;;;16.43;100.00;97386.31;4894535;29;20111;-49
2022/07/03 02:20:18;;;;;;;1.25;0.98;;;16.70;99.90;;;16.56;99.68;97403.25;4908861;29;20031;-48
2022/07/03 02:22:52;;;;;;;1.00;0.90;;;16.70;99.90;;;16.57;99.81;97404.09;4898707;29;20024;-46
2022/07/03 02:25:25;;;;;;;1.80;1.17;;;16.60;99.90;;;16.53;100.00;97399.94;4915952;29;20043;-46
2022/07/03 02:27:57;;;;;;;1.40;1.00;;;16.60;99.90;;;16.50;100.00;97400.09;4903046;29;20872;-48
2022/07/03 02:30:24;;;;;;;1.60;0.93;;;16.60;99.90;;;16.46;100.00;97402.09;4914874;29;20043;-47
2022/07/03 02:32:52;;;;;;;1.45;1.15;;;16.60;99.90;;;16.41;100.00;97396.19;4905266;29;20179;-49
2022/07/03 02:35:25;;;;;;;1.52;1.20;;;16.50;99.90;;;16.34;100.00;97398.38;4899651;29;20107;-46
2022/07/03 02:38:05;;;;;;;0.93;0.90;;;16.50;99.90;;;16.30;100.00;97398.66;4897797;29;20047;-49
2022/07/03 02:40:56;;;;;;;1.20;1.10;;;16.40;99.90;;;16.22;100.00;97402.63;4896858;29;20429;-46
2022/07/03 02:43:41;;;;;;;1.33;1.10;;;16.40;99.90;;;16.16;100.00;97402.97;4900936;29;20221;-51
2022/07/03 02:49:08;;;;;;;2.08;1.10;;;16.30;99.90;;;16.07;100.00;97398.22;4900902;29;20503;-50
2022/07/03 02:51:38;;;;;;;1.20;1.10;;;16.20;99.90;;;16.01;100.00;97395.94;4883617;29;20032;-51
2022/07/03 02:54:13;;;;;;;1.25;0.98;;;16.20;99.90;;;15.97;100.00;97400.56;4885686;29;20023;-49
2022/07/03 02:57:04;;;;;;;1.40;1.10;;;16.10;99.90;;;15.93;100.00;97403.50;4885370;29;20032;-47
2022/07/03 03:00:01;;;;;;;1.38;1.10;;;16.10;99.90;;;15.89;100.00;97407.28;4900756;29;20050;-48
2022/07/03 03:02:55;;;;;;;2.08;1.00;;;16.00;99.90;;;15.84;100.00;97404.88;4898209;29;20071;-51
2022/07/03 03:05:31;;;;;;;1.15;1.05;;;16.00;99.90;;;15.79;100.00;97405.16;4900360;29;20044;-49
2022/07/03 03:08:19;;;;;;;1.20;1.10;;;15.90;99.90;;;15.77;100.00;97415.03;4887397;29;23138;-47
2022/07/03 03:10:46;;;;;;;1.10;1.00;;;15.90;99.90;;;15.76;100.00;97412.47;4882291;29;20028;-49
2022/07/03 03:13:16;;;;;;;1.23;1.10;;;15.90;99.90;;;15.74;100.00;97412.53;4901903;29;20635;-49
2022/07/03 03:16:09;;;;;;;2.03;1.45;;;15.90;99.90;;;15.75;100.00;97414.25;4899904;29;20194;-49
2022/07/03 03:18:40;;;;;;;1.40;1.10;;;15.90;99.90;;;15.78;100.00;97416.72;4883027;29;20115;-49
2022/07/03 03:21:10;;;;;;;1.77;1.30;;;16.00;99.90;;;15.83;100.00;97422.66;4895620;29;20111;-47
2022/07/03 03:23:51;;;;;;;1.48;1.20;;;16.00;99.90;;;15.88;100.00;97421.50;4897988;29;20047;-48
2022/07/03 03:26:28;;;;;;;1.58;1.35;;;16.00;99.90;;;15.90;100.00;97422.28;4902869;29;20056;-50
2022/07/03 03:28:54;;;;;;;2.08;1.27;;;16.10;99.90;;;15.92;100.00;97418.59;4902214;29;20036;-51
2022/07/03 03:31:21;;;;;;;1.55;1.20;;;16.10;99.90;;;15.98;100.00;97428.88;4900114;29;20115;-49
2022/07/03 03:33:50;;;;;;;1.40;1.20;;;16.10;99.90;;;16.01;100.00;97425.19;4901959;29;20032;-48
2022/07/03 03:36:18;;;;;;;2.65;1.20;;;16.20;99.90;;;16.10;100.00;97432.63;4906065;29;20036;-48
2022/07/03 03:38:45;;;;;;;1.30;1.20;;;16.30;99.90;;;16.15;100.00;97433.22;4904752;29;20718;-48
2022/07/03 03:41:11;;;;;;;4.03;1.20;;;16.30;99.90;;;16.18;100.00;97434.81;4905535;29;20107;-47
2022/07/03 03:43:38;;;;;;;1.23;1.13;;;16.30;99.90;;;16.21;100.00;97438.16;4903020;29;21737;-51
2022/07/03 03:46:04;;;;;;;1.58;1.48;;;16.30;99.90;;;16.24;100.00;97431.81;4901922;29;20089;-49
2022/07/03 03:48:32;;;;;;;1.30;1.00;;;16.40;99.90;;;16.34;100.00;97437.44;4905800;29;20214;-50
2022/07/03 03:50:59;;;;;;;1.58;1.20;;;16.50;99.90;;;16.37;100.00;97440.78;4902442;29;20039;-50
2022/07/03 03:53:26;;;;;;;1.33;1.23;;;16.50;99.90;;;16.40;100.00;97440.59;4903550;29;20040;-52
2022/07/03 03:56:02;;;;;;;1.30;1.20;;;16.50;99.90;;;16.41;100.00;97447.63;4903619;29;20036;-51
2022/07/03 03:58:34;;;;;;;2.30;1.23;;;16.50;99.90;;;16.48;100.00;97440.13;4904521;29;21368;-47
2022/07/03 04:01:01;;;;;;;;;;;16.60;99.90;;;16.53;99.79;97438.06;4901513;29;20466;-49
2022/07/03 04:03:28;;;;;;;2.40;1.10;;;16.70;99.90;;;16.59;99.62;97440.31;4901028;29;19998;-48
2022/07/03 04:05:55;;;;;;;1.40;1.20;;;16.70;99.90;;;16.63;99.47;97440.16;4906061;29;20111;-49
2022/07/03 04:08:22;;;;;;;1.85;1.27;;;16.80;99.90;;;16.65;99.14;97439.09;4909131;29;20052;-50
2022/07/03 04:10:48;;;;;;;1.25;1.10;;;16.80;99.90;;;16.70;98.47;97444.16;4899833;29;20131;-51
2022/07/03 04:13:15;;;;;;;1.48;1.23;;;16.80;99.90;;;16.75;98.19;97442.91;4906001;29;20091;-49
2022/07/03 04:15:41;;;;;;;1.08;0.98;;;16.90;99.90;;;16.81;97.65;97433.69;4902001;29;20028;-52
2022/07/03 04:18:07;;;;;;;3.08;1.10;;;16.90;99.90;;;16.95;96.92;97440.88;4905295;29;20125;-50
2022/07/03 04:20:33;;;;;;;1.73;1.13;;;17.10;99.90;;;17.01;96.75;97443.13;4904106;29;20035;-51
2022/07/03 04:22:59;;;;;;;3.05;1.20;;;17.20;99.90;;;17.09;97.00;97440.88;4904339;29;20099;-50
2022/07/03 04:25:25;;;;;;;1.25;1.15;;;17.20;99.90;;;17.18;95.36;97440.28;4907718;29;20031;-51
2022/07/03 04:27:51;;;;;;;1.83;1.30;;;17.30;99.90;;;17.23;95.25;97450.66;4907802;29;20095;-50
2022/07/03 04:30:17;;;;;;;1.60;1.10;;;17.40;99.90;;;17.21;94.63;97436.59;4889670;29;20449;-50
2022/07/03 04:32:42;;;;;;;0.90;0.90;;;17.40;99.90;;;17.36;95.30;97454.25;4901922;29;20040;-51
2022/07/03 04:35:09;;;;;;;1.20;1.10;;;17.50;99.90;;;17.40;95.27;97454.91;4903468;29;20050;-51
2022/07/03 04:37:35;;;;;;;1.30;0.93;;;17.50;99.90;;;17.47;94.57;97469.56;4902946;29;20234;-51
2022/07/03 04:40:01;;;;;;;1.02;0.93;;;17.60;99.90;;;17.53;94.29;97465.63;4905713;29;20040;-50
2022/07/03 04:42:26;;;;;;;1.75;1.10;;;17.70;99.90;;;17.61;93.75;97470.50;4905395;29;20101;-47
2022/07/03 04:44:52;;;;;;;1.60;1.17;;;17.70;99.90;;;17.69;92.11;97473.50;4903690;29;20043;-48
2022/07/03 04:47:18;;;;;;;1.40;1.10;;;17.80;99.90;;;17.80;91.64;97478.16;4901126;29;20035;-50
2022/07/03 04:49:44;;;;;;;1.67;1.20;;;17.90;99.90;;;17.86;91.71;97470.66;4901538;29;20481;-48
2022/07/03 04:52:10;;;;;;;2.13;1.23;;;18.00;99.90;;;17.97;91.13;97479.78;4903021;29;20094;-50
2022/07/03 04:54:36;;;;;;;1.65;1.17;;;18.10;99.90;;;18.05;90.92;97478.31;4900394;29;20396;-50
2022/07/03 04:57:03;;;;;;;1.08;0.90;;;18.20;99.90;;;18.09;91.36;97478.97;4905738;29;20080;-51
2022/07/03 04:59:29;;;;;;;1.40;1.15;;;18.20;99.90;;;18.17;90.23;97479.28;4904691;29;20028;-47
2022/07/03 05:01:55;;;;;;;0.82;0.82;;;18.20;99.90;;;18.31;90.05;97481.06;4885048;29;20051;-48
2022/07/03 05:04:21;;;;;;;1.15;0.93;;;18.40;99.90;;;18.56;89.63;97484.75;4904458;29;20040;-51
2022/07/03 05:06:48;;;;;;;1.17;1.00;;;18.60;99.90;;;19.10;85.79;97484.59;4902433;29;20127;-48
2022/07/03 05:09:14;;;;;;;1.88;1.10;;;18.80;99.90;;;19.94;81.63;97477.69;4906579;29;20162;-51
2022/07/03 05:11:41;;;;;;;1.60;1.00;;;19.30;99.90;;;20.96;74.89;97480.75;4899950;29;20491;-48
2022/07/03 05:14:07;;;;;;;1.00;0.90;;;20.00;99.90;;;22.24;68.50;97490.16;4904789;29;20043;-47
2022/07/03 05:16:33;;;;;;;1.90;1.20;;;20.70;99.90;;;23.47;60.78;97486.06;4902752;29;20111;-48
2022/07/03 05:18:58;;;;;;;1.20;1.10;;;21.60;99.90;;;24.69;56.27;97470.59;4904499;29;20119;-48
2022/07/03 05:21:24;;;;;;;1.52;1.20;;;22.60;99.90;;;25.82;50.32;97493.13;4901867;29;20118;-47
2022/07/03 05:23:50;;;;;;;1.63;1.00;;;23.40;99.90;;;26.25;48.58;97488.91;4903967;29;20081;-48
2022/07/03 05:26:16;;;;;;;2.05;1.30;;;23.90;99.90;;;26.77;46.82;97483.66;4907972;29;20060;-48
2022/07/03 05:28:42;;;;;;;1.77;1.08;;;24.50;99.00;;;27.23;45.23;97475.38;4906306;29;20036;-48
2022/07/03 05:31:08;;;;;;;3.17;1.23;;;24.90;97.50;;;27.81;43.45;97496.34;4902929;29;20551;-46
2022/07/03 05:33:34;;;;;;;1.15;1.05;;;25.30;95.90;;;28.01;43.29;97496.09;4901621;29;20032;-47
2022/07/03 05:36:00;;;;;;;1.70;1.20;;;25.60;95.30;;;27.73;42.80;97492.78;4901409;29;20033;-48
2022/07/03 05:41:11;;;;;;;1.05;0.95;;;25.50;94.30;;;26.15;47.54;97502.50;4906160;29;20148;-48
2022/07/03 05:43:37;;;;;;;1.30;0.98;;;25.00;94.90;;;25.27;48.96;97499.34;4905294;29;20051;-50
2022/07/03 05:46:04;;;;;;;1.20;1.00;;;24.50;94.90;;;24.57;51.86;97497.72;4902012;29;20117;-50
2022/07/03 05:48:30;;;;;;;1.20;1.10;;;24.10;95.90;;;24.07;54.64;97503.16;4887552;29;20444;-49
2022/07/03 05:50:56;;;;;;;1.23;1.05;;;23.70;96.90;;;23.68;56.80;97492.25;4888626;29;20039;-50
2022/07/03 05:53:22;;;;;;;1.08;0.98;;;23.40;97.70;;;23.42;58.10;97492.72;4903959;29;20055;-46
2022/07/03 05:55:49;;;;;;;1.25;1.15;;;23.20;98.00;;;23.19;58.77;97486.66;4900625;29;20036;-48
2022/07/03 05:58:15;;;;;;;1.67;1.00;;;23.00;98.20;;;23.02;60.13;97492.63;4907286;29;20028;-46
2022/07/03 06:00:41;;;;;;;2.08;1.00;;;22.80;98.70;;;22.88;61.96;97483.91;4899415;29;20040;-49
2022/07/03 06:03:08;;;;;;;1.98;0.98;;;22.70;99.40;;;22.82;61.03;97481.75;4901282;29;20032;-51
2022/07/03 06:05:34;;;;;;;0.95;0.90;;;22.70;99.20;;;22.71;63.01;97480.97;4897303;29;20119;-49
2022/07/03 06:08:00;;;;;;;1.20;1.10;;;22.60;99.70;;;22.68;62.41;97490.13;4903374;29;20035;-50
2022/07/03 06:10:27;;;;;;;1.50;1.17;;;22.60;99.50;;;22.65;63.00;97491.25;4903115;29;20395;-48
2022/07/03 06:12:53;;;;;;;0.90;0.90;;;22.60;99.70;;;22.63;64.68;97492.34;4902537;29;20897;-51
2022/07/03 06:15:19;;;;;;;1.10;1.00;;;22.50;99.90;;;22.66;64.20;97492.94;4907126;29;21441;-47
2022/07/03 06:17:45;;;;;;;1.25;0.95;;;22.60;99.90;;;22.70;63.39;97482.78;4887513;29;20203;-47
2022/07/03 06:20:11;;;;;;;1.60;0.80;;;22.70;99.90;;;22.79;65.97;97489.22;4889812;29;20511;-52
2022/07/03 06:22:38;;;;;;;0.77;0.77;;;22.70;99.90;;;22.84;66.05;97495.94;4899628;29;20036;-51
2022/07/03 06:25:04;;;;;;;1.77;1.10;;;22.80;99.90;;;22.94;63.01;97485.22;4884774;29;20028;-47
2022/07/03 06:27:30;;;;;;;1.02;0.90;;;22.80;99.90;;;23.00;63.21;97483.84;4896933;29;20052;-52
2022/07/03 06:29:56;;;;;;;1.00;0.90;;;22.90;99.90;;;23.09;60.59;97488.44;4902123;29;20032;-50
2022/07/03 06:32:21;;;;;;;1.00;0.90;;;23.00;99.00;;;23.15;60.00;97484.38;4898136;29;20043;-49
2022/07/03 06:34:48;;;;;;;0.98;0.90;;;23.10;98.80;;;23.20;60.25;97482.13;4901740;29;20284;-48
2022/07/03 06:37:13;;;;;;;1.90;0.88;;;23.20;98.80;;;23.27;57.19;97488.69;4902420;29;20039;-45
2022/07/03 06:39:39;;;;;;;4.53;0.95;;;23.20;97.70;;;23.22;54.19;97480.16;4946703;23;20055;-40
2022/07/03 06:42:06;;;;;;;0.90;0.90;;;23.30;96.30;;;23.20;54.79;97472.25;4938067;28;20123;-39
2022/07/03 06:44:32;;;;;;;2.05;0.95;;;23.30;96.20;;;23.28;56.51;97492.25;4939808;28;20090;-40
2022/07/03 06:46:58;;;;;;;1.55;0.82;;;23.30;96.60;;;23.35;53.56;97493.41;4936589;28;20610;-40
2022/07/03 06:49:24;;;;;;;1.15;0.95;;;23.40;96.00;;;23.41;54.48;97490.16;4938527;28;20082;-40
2022/07/03 06:51:50;;;;;;;1.50;0.88;;;23.40;96.00;;;23.44;54.88;97487.22;4937810;28;20027;-40
2022/07/03 06:54:15;;;;;;;0.98;0.90;;;23.50;96.20;;;23.55;54.67;97495.19;4937279;28;20041;-39
2022/07/03 06:56:42;;;;;;;1.45;1.00;;;23.50;96.00;;;23.61;53.91;97501.88;4938885;28;20042;-40
2022/07/03 06:59:08;;;;;;;1.65;1.20;;;23.60;96.10;;;23.63;54.23;97502.56;4933957;28;21047;-40
2022/07/03 07:01:34;;;;;;;0.98;0.88;;;23.60;95.50;;;23.63;53.70;97503.44;4937380;28;20059;-39
2022/07/03 07:04:00;;;;;;;1.23;0.90;;;23.60;95.30;;;23.67;53.15;97506.72;4936925;28;20644;-40
2022/07/03 07:06:26;;;;;;;1.75;0.90;;;23.70;95.00;;;23.72;52.04;97498.22;4932207;28;20031;-40
2022/07/03 07:08:51;;;;;;;1.10;1.00;;;23.70;94.80;;;23.74;51.78;97505.19;4935782;28;20126;-39
2022/07/03 07:11:17;;;;;;;1.20;0.95;;;23.70;94.20;;;23.82;53.43;97499.13;4939186;28;20070;-40
2022/07/03 07:13:43;;;;;;;1.63;1.00;;;23.80;95.00;;;23.88;52.53;97508.50;4936433;28;20252;-39
2022/07/03 07:16:08;;;;;;;3.03;0.95;;;23.90;94.30;;;24.00;53.61;97504.72;4937471;28;20035;-39
2022/07/03 07:18:34;;;;;;;3.55;0.95;;;24.00;95.00;;;24.13;53.25;97510.69;4941493;28;20034;-39
2022/07/03 07:21:01;;;;;;;0.85;0.85;;;24.10;95.10;;;24.06;48.87;97506.00;4937174;28;20061;-40
2022/07/03 07:23:26;;;;;;;1.10;0.93;;;24.10;92.30;;;24.11;48.58;97507.28;4937726;28;20502;-40
2022/07/03 07:25:52;;;;;;;1.50;1.00;;;24.10;92.10;;;24.23;48.56;97504.44;4938488;28;20051;-40
2022/07/03 07:28:18;;;;;;;0.75;0.75;;;24.20;92.00;;;24.24;49.42;97512.41;4928591;28;20030;-39
2022/07/03 07:30:44;;;;;;;3.17;0.90;;;24.20;92.50;;;24.28;47.75;97508.44;4930708;28;20468;-40
2022/07/03 07:33:10;;;;;;;0.70;0.70;;;24.30;91.30;;;24.33;46.60;97513.41;4932156;28;20043;-39
2022/07/03 07:35:36;;;;;;;1.20;1.00;;;24.30;90.30;;;24.38;46.44;97519.22;4936819;28;20619;-39
2022/07/03 07:38:01;;;;;;;0.80;0.80;;;24.40;90.40;;;24.53;46.91;97525.06;4939444;28;20123;-40
2022/07/03 07:40:27;;;;;;;1.63;0.90;;;24.50;90.60;;;24.55;45.79;97513.19;4929308;28;20561;-40
2022/07/03 07:42:53;;;;;;;1.10;0.82;;;24.50;90.00;;;24.63;46.00;97517.84;4926534;28;20523;-40
2022/07/03 07:45:19;;;;;;;1.77;0.90;;;24.60;90.00;;;24.72;45.78;97521.53;4936881;28;20042;-40
2022/07/03 07:47:44;;;;;;;1.23;0.85;;;24.70;89.90;;;24.64;43.85;97519.56;4940130;28;20058;-40
2022/07/03 07:50:11;;;;;;;1.10;0.88;;;24.70;87.00;;;24.62;45.22;97523.38;4932745;28;20039;-39
2022/07/03 07:52:37;;;;;;;1.15;0.90;;;24.70;87.50;;;24.62;45.45;97518.00;4930971;28;20042;-40
2022/07/03 07:55:05;;;;;;;6.32;0.90;;;24.60;88.10;;;24.57;44.00;97513.88;4938546;28;20049;-39
2022/07/03 07:57:35;;;;;;;1.50;0.70;;;24.60;85.70;;;24.62;44.76;97518.00;4939542;28;20117;-40
2022/07/03 08:00:12;;;;;;;1.92;0.80;;;24.60;86.00;;;24.68;45.15;97512.88;4931599;28;20034;-40
2022/07/03 08:06:00;;;;;;;1.92;0.80;;;24.80;87.80;;;25.03;43.72;97514.09;4942230;28;20073;-40
2022/07/03 08:08:26;;;;;;;1.25;0.80;;;24.90;86.20;;;25.08;42.24;97511.00;4949659;28;20027;-41
2022/07/03 08:10:52;;;;;;;1.20;0.90;;;25.00;82.30;;;25.10;42.98;97498.19;4944850;28;20027;-40
2022/07/03 08:13:19;;;;;;;2.45;1.02;;;25.10;83.50;;;25.13;43.43;97508.72;4945977;28;20066;-40
2022/07/03 08:15:46;;;;;;;0.70;0.70;;;25.10;83.50;;;25.16;41.30;97503.03;4942469;28;20110;-41
2022/07/03 08:18:13;;;;;;;0.90;0.80;;;25.10;80.80;;;25.16;41.28;97505.72;4945392;28;20464;-40
2022/07/03 08:20:38;;;;;;;1.17;0.77;;;25.10;79.70;;;25.13;41.39;97487.97;4948230;28;20027;-40
2022/07/03 08:23:04;;;;;;;1.45;0.60;;;25.20;80.50;;;25.28;42.50;97501.03;4952042;28;20390;-40
2022/07/03 08:25:31;;;;;;;1.05;0.85;;;25.20;81.50;;;25.25;40.45;97504.88;4951380;28;20027;-40
2022/07/03 08:27:57;;;;;;;2.53;0.75;;;25.30;78.00;;;25.29;42.13;97505.44;4950693;28;20027;-41
2022/07/03 08:30:23;;;;;;;1.70;1.00;;;25.30;79.50;;;25.26;39.67;97506.56;4944691;28;20377;-41
2022/07/03 08:32:51;;;;;;;1.05;0.80;;;25.20;75.80;;;25.34;40.41;97512.09;4948946;28;20046;-41
2022/07/03 08:35:18;;;;;;;1.30;0.70;;;25.30;77.50;;;25.41;40.38;97508.78;4947998;28;20037;-42
2022/07/03 08:37:46;;;;;;;0.82;0.80;;;25.40;76.60;;;25.57;41.42;97505.47;4950166;28;20058;-41
2022/07/03 08:40:14;;;;;;;2.53;0.90;;;25.40;78.90;;;25.61;39.41;97499.63;4948664;28;20396;-41
2022/07/03 08:42:47;;;;;;;1.50;0.80;;;25.60;76.00;;;25.59;39.49;97498.94;4945035;28;20027;-41
2022/07/03 08:45:18;;;;;;;2.58;0.80;;;25.60;75.50;;;25.58;41.27;97491.81;4946178;28;20031;-41
2022/07/03 08:47:45;;;;;;;3.22;0.70;;;25.60;77.50;;;25.58;39.73;97502.63;4947837;28;20031;-41
2022/07/03 08:50:13;;;;;;;0.85;0.80;;;25.60;75.80;;;25.60;39.55;97494.38;4947374;28;20550;-40
2022/07/03 08:52:39;;;;;;;3.28;0.90;;;25.60;74.50;;;25.50;39.42;97467.41;4947467;28;20039;-41
2022/07/03 08:55:06;;;;;;;1.27;0.85;;;25.60;74.90;;;25.57;39.75;97486.56;4948001;28;20031;-42
2022/07/03 08:57:33;;;;;;;0.60;0.60;;;25.60;75.10;;;25.56;40.87;97490.28;4948164;28;20098;-40
2022/07/03 09:00:02;;;;;;;0.73;0.70;;;25.60;75.80;;;25.57;41.80;97476.59;4947118;28;20028;-40
2022/07/03 09:02:29;;;;;;;0.70;0.60;;;25.60;77.50;;;25.72;42.40;97471.59;4947214;28;20031;-40
2022/07/03 09:04:56;;;;;;;2.58;0.65;;;25.70;79.00;;;25.85;41.22;97490.13;4949096;28;20212;-40
2022/07/03 09:07:24;;;;;;;1.83;0.98;;;25.80;79.20;;;25.92;40.44;97489.38;4946671;28;20155;-40
2022/07/03 09:09:51;;;;;;;1.70;0.95;;;25.80;76.20;;;25.97;40.30;97493.50;4947124;28;20355;-40
2022/07/03 09:12:17;;;;;;;1.13;1.02;;;25.90;75.30;;;26.00;41.16;97491.34;4942985;28;20035;-40
2022/07/03 09:14:43;;;;;;;0.95;0.80;;;25.90;76.50;;;26.04;40.59;97491.88;4946915;28;20066;-42
2022/07/03 09:17:10;;;;;;;0.82;0.80;;;26.00;76.40;;;26.09;37.83;97490.44;4947922;28;20109;-40
2022/07/03 09:19:47;;;;;;;1.40;1.00;;;26.00;71.90;;;26.09;38.37;97492.28;4946751;28;20039;-39
2022/07/03 09:22:27;;;;;;;0.80;0.80;;;26.00;71.80;;;26.04;39.82;97489.19;4949791;28;20046;-39
2022/07/03 09:25:03;;;;;;;0.88;0.88;;;26.00;73.60;;;26.00;39.97;97490.50;4947418;28;20023;-40
2022/07/03 09:27:29;;;;;;;2.08;0.85;;;26.00;73.70;;;26.01;39.88;97482.25;4946429;28;20062;-40
2022/07/03 09:30:09;;;;;;;1.10;0.80;;;26.00;73.80;;;26.08;38.62;97486.03;4945847;28;20070;-39
2022/07/03 09:32:38;;;;;;;0.80;0.70;;;26.00;73.80;;;26.03;37.81;97488.34;4949461;28;20402;-40
2022/07/03 09:35:26;;;;;;;1.30;0.60;;;26.00;69.90;;;26.13;36.47;97484.72;4943289;28;20047;-41
2022/07/03 09:37:58;;;;;;;0.95;0.80;;;26.00;69.60;;;26.15;37.35;97497.09;4946028;28;20059;-40
2022/07/03 09:40:51;;;;;;;0.60;0.60;;;26.10;68.80;;;26.13;36.48;97491.00;4944219;28;20487;-40
2022/07/03 09:43:27;;;;;;;0.70;0.60;;;26.10;69.00;;;26.13;37.17;97484.72;4946921;29;20470;-40
2022/07/03 09:46:02;;;;;;;0.68;0.52;;;26.10;67.80;;;26.10;37.41;97486.72;4944749;28;20041;-39
2022/07/03 09:48:39;;;;;;;2.05;0.90;;;26.10;69.30;;;25.96;36.88;97489.94;4945911;28;20450;-40
2022/07/03 09:51:14;;;;;;;0.70;0.70;;;26.00;66.90;;;25.96;37.74;97489.09;4939934;28;20558;-40
2022/07/03 09:54:01;;;;;;;1.30;0.82;;;25.90;68.70;;;26.00;38.88;97480.53;4947397;29;20210;-39
2022/07/03 09:56:33;;;;;;;0.95;0.63;;;26.00;70.90;;;26.05;40.65;97466.56;4943131;28;20031;-39
2022/07/03 09:59:14;;;;;;;1.00;0.80;;;26.00;70.10;;;26.08;38.36;97472.53;4946478;28;20027;-39
2022/07/03 10:01:46;;;;;;;1.90;0.85;;;26.00;69.80;;;26.08;37.96;97469.81;4946174;29;20031;-40
2022/07/03 10:04:20;;;;;;;2.08;1.00;;;26.00;69.00;;;26.16;42.12;97463.66;4942823;29;20039;-40
2022/07/03 10:06:54;;;;;;;1.13;0.60;;;26.10;72.30;;;26.12;37.50;97473.06;4945265;28;20050;-40
2022/07/03 10:09:26;;;;;;;1.05;0.82;;;26.10;68.50;;;26.15;37.55;97475.47;4945157;28;20047;-40
2022/07/03 10:11:56;;;;;;;0.68;0.68;;;26.10;68.90;;;26.16;36.76;97468.22;4946281;29;20066;-39
2022/07/03 10:14:28;;;;;;;1.05;0.70;;;26.10;66.70;;;26.18;37.03;97461.63;4947285;29;20035;-39
2022/07/03 10:16:57;;;;;;;1.00;0.90;;;26.10;67.40;;;26.17;37.78;97469.91;4947310;29;20086;-39
2022/07/03 10:19:28;;;;;;;1.38;0.90;;;26.10;68.10;;;26.23;39.32;97464.72;4942664;28;20057;-39
2022/07/03 10:21:59;;;;;;;2.03;0.80;;;26.20;70.50;;;26.28;37.19;97473.22;4945625;29;20034;-40
2022/07/03 10:24:28;;;;;;;1.50;0.80;;;26.30;67.10;;;26.25;37.55;97464.56;4948258;29;20031;-40
2022/07/03 10:26:56;;;;;;;3.35;0.70;;;26.30;68.30;;;26.34;39.19;97455.53;4946668;29;20031;-40
2022/07/03 10:29:24;;;;;;;0.70;0.70;;;26.30;69.80;;;26.43;38.84;97453.75;4945658;28;20493;-41
2022/07/03 10:31:50;;;;;;;0.60;0.60;;;26.30;70.00;;;26.51;39.68;97447.59;4945200;28;20043;-40
2022/07/03 10:34:23;;;;;;;3.08;0.90;;;26.50;70.80;;;26.48;38.54;97446.88;4944031;29;20506;-40
2022/07/03 10:36:54;;;;;;;0.75;0.63;;;26.50;69.60;;;26.56;38.04;97459.66;4945004;28;20065;-40
2022/07/03 10:46:10;;;;;;;1.27;0.85;;;26.70;69.10;;;26.71;38.11;97449.13;4944909;28;20093;-39
2022/07/03 10:48:56;;;;;;;1.00;0.90;;;26.70;67.70;;;26.82;38.22;97465.13;4944035;28;20728;-41